Time;durP1;ratioP1;P1;durP2;ratioP2;P2;SDS_P1;SDS_P2;PMS_P1;PMS_P2;Temp;Humidity;BMP_temperature;BMP_pressure;BME280_temperature;BME280_humidity;BME280_pressure;Samples;Min_cycle;Max_cycle;Signal;HPM_P1;HPM_P2
2021/07/07 00:10:45;;;;;;;10.55;5.60;;;;;;;;;;4397899;28;20118;-77
2021/07/07 00:13:11;;;;;;;12.15;5.93;;;;;;;;;;5072584;28;20031;-77
2021/07/07 00:15:39;;;;;;;10.85;6.25;;;;;;;;;;5075894;28;20020;-78
2021/07/07 00:18:10;;;;;;;7.05;5.03;;;;;;;;;;5074513;28;20028;-78
2021/07/07 00:20:58;;;;;;;9.48;6.22;;;;;;;;;;5076027;28;20012;-77
2021/07/07 00:23:26;;;;;;;12.35;5.22;;;;;;;;;;5057703;28;20052;-78
2021/07/07 00:25:51;;;;;;;7.65;6.38;;;;;;;;;;5055922;28;20032;-78
2021/07/07 00:28:17;;;;;;;9.95;6.13;;;;;;;;;;5055872;28;20016;-78
2021/07/07 00:30:42;;;;;;;9.43;5.93;;;;;;;;;;5059602;28;20441;-78
2021/07/07 00:33:08;;;;;;;9.13;6.50;;;;;;;;;;5076261;28;20025;-77
2021/07/07 00:35:38;;;;;;;11.35;6.28;;;;;;;;;;5074684;28;20301;-78
2021/07/07 00:38:06;;;;;;;9.32;6.07;;;;;;;;;;5075671;28;20452;-78
2021/07/07 00:40:31;;;;;;;12.43;6.28;;;;;;;;;;5067694;28;20029;-77
2021/07/07 00:42:58;;;;;;;7.47;5.90;;;;;;;;;;5055390;28;20032;-77
2021/07/07 00:45:26;;;;;;;8.27;5.65;;;;;;;;;;5061679;28;20166;-78
2021/07/07 00:47:51;;;;;;;8.68;6.20;;;;;;;;;;5075211;28;20020;-78
2021/07/07 00:50:19;;;;;;;10.80;6.75;;;;;;;;;;5075064;28;20025;-78
2021/07/07 00:52:46;;;;;;;7.03;6.30;;;;;;;;;;5074086;28;20105;-78
2021/07/07 00:55:13;;;;;;;8.75;5.97;;;;;;;;;;5063413;28;20395;-77
2021/07/07 00:57:41;;;;;;;8.75;6.40;;;;;;;;;;5059612;28;20478;-78
2021/07/07 01:00:08;;;;;;;9.40;6.30;;;;;;;;;;5054683;28;20052;-78
2021/07/07 01:02:36;;;;;;;8.27;6.50;;;;;;;;;;5053336;28;20025;-77
2021/07/07 01:05:04;;;;;;;11.73;5.85;;;;;;;;;;5054698;28;20090;-78
2021/07/07 01:07:29;;;;;;;8.95;5.55;;;;;;;;;;5054150;28;20392;-78
2021/07/07 01:09:54;;;;;;;9.43;5.47;;;;;;;;;;5073487;28;20024;-77
2021/07/07 01:12:19;;;;;;;8.88;5.35;;;;;;;;;;5074421;28;20274;-80
2021/07/07 01:14:45;;;;;;;7.85;5.80;;;;;;;;;;5069132;28;20033;-78
2021/07/07 01:17:10;;;;;;;9.63;6.30;;;;;;;;;;5074493;28;20119;-78
2021/07/07 01:19:36;;;;;;;10.45;5.97;;;;;;;;;;5074843;28;20464;-78
2021/07/07 01:22:01;;;;;;;11.75;6.20;;;;;;;;;;5074003;28;20429;-78
2021/07/07 01:24:26;;;;;;;9.20;5.90;;;;;;;;;;5054936;28;20338;-78
2021/07/07 01:26:51;;;;;;;10.00;6.30;;;;;;;;;;5070541;28;20016;-78
2021/07/07 01:29:17;;;;;;;9.50;6.03;;;;;;;;;;5074220;28;20270;-78
2021/07/07 01:31:45;;;;;;;10.05;6.10;;;;;;;;;;5074577;28;20020;-78
2021/07/07 01:34:14;;;;;;;8.55;5.80;;;;;;;;;;5065209;28;20453;-77
2021/07/07 01:36:40;;;;;;;12.90;6.20;;;;;;;;;;5055187;28;20071;-78
2021/07/07 01:39:06;;;;;;;10.32;6.00;;;;;;;;;;5053438;28;20048;-78
2021/07/07 01:41:31;;;;;;;9.48;5.90;;;;;;;;;;5054503;28;20025;-77
2021/07/07 01:43:58;;;;;;;12.93;6.20;;;;;;;;;;5066463;28;20024;-77
2021/07/07 01:46:23;;;;;;;9.75;5.75;;;;;;;;;;5074357;28;20028;-78
2021/07/07 01:48:48;;;;;;;7.18;5.88;;;;;;;;;;5073512;28;20082;-78
2021/07/07 01:51:13;;;;;;;7.22;5.88;;;;;;;;;;5073875;28;20013;-77
2021/07/07 01:53:41;;;;;;;8.73;5.90;;;;;;;;;;5064388;28;20090;-78
2021/07/07 01:56:06;;;;;;;11.57;6.18;;;;;;;;;;5068732;28;20047;-78
2021/07/07 01:58:31;;;;;;;9.53;6.17;;;;;;;;;;5073462;28;20028;-78
2021/07/07 02:00:56;;;;;;;9.27;6.30;;;;;;;;;;5073988;28;20259;-78
2021/07/07 02:03:22;;;;;;;10.32;5.78;;;;;;;;;;5067171;28;20040;-77
2021/07/07 02:05:47;;;;;;;8.53;5.77;;;;;;;;;;5053789;28;20086;-77
2021/07/07 02:08:14;;;;;;;10.13;5.67;;;;;;;;;;5062452;28;20349;-77
2021/07/07 02:10:40;;;;;;;9.40;5.90;;;;;;;;;;5073652;28;20343;-78
2021/07/07 02:13:09;;;;;;;6.55;5.85;;;;;;;;;;5071424;28;20020;-78
2021/07/07 02:15:35;;;;;;;8.13;6.03;;;;;;;;;;5053511;28;20104;-78
2021/07/07 02:18:01;;;;;;;13.70;6.18;;;;;;;;;;5053225;28;20103;-77
2021/07/07 06:27:05;;;;;;;9.82;5.20;;;;;;;;;;3878641;22;20054;-68
2021/07/07 06:29:30;;;;;;;12.38;5.18;;;;;;;;;;5034117;28;20049;-68
2021/07/07 06:31:56;;;;;;;6.28;4.65;;;;;;;;;;5016912;28;20032;-68
2021/07/07 06:34:21;;;;;;;9.82;5.18;;;;;;;;;;5034023;28;20132;-68
2021/07/07 06:36:48;;;;;;;8.65;4.50;;;;;;;;;;5034178;28;20083;-68
2021/07/07 06:39:16;;;;;;;8.13;4.25;;;;;;;;;;5034157;28;20586;-68
2021/07/07 06:41:41;;;;;;;6.22;4.88;;;;;;;;;;5027758;28;20434;-68
2021/07/07 06:44:09;;;;;;;7.03;4.70;;;;;;;;;;5033158;28;20037;-68
2021/07/07 06:46:35;;;;;;;6.00;4.18;;;;;;;;;;5032632;28;20018;-68
2021/07/07 06:49:01;;;;;;;8.73;4.78;;;;;;;;;;5033865;28;20014;-68
2021/07/07 06:51:27;;;;;;;6.32;4.40;;;;;;;;;;5018578;28;20096;-68
2021/07/07 06:53:52;;;;;;;6.07;4.80;;;;;;;;;;5033443;28;20039;-69
2021/07/07 06:56:17;;;;;;;6.32;4.70;;;;;;;;;;5033200;28;20017;-68
2021/07/07 06:58:42;;;;;;;8.63;5.30;;;;;;;;;;5016500;28;20025;-68
2021/07/07 07:01:08;;;;;;;7.53;4.80;;;;;;;;;;5028604;28;20240;-69
2021/07/07 07:03:35;;;;;;;7.13;5.15;;;;;;;;;;5035669;28;20287;-68
2021/07/07 07:06:03;;;;;;;8.93;4.93;;;;;;;;;;5046695;28;20032;-68
2021/07/07 07:08:28;;;;;;;8.05;5.43;;;;;;;;;;5046869;28;20020;-68
2021/07/07 07:10:55;;;;;;;9.52;5.38;;;;;;;;;;5042374;28;20009;-68
2021/07/07 07:13:21;;;;;;;8.52;5.03;;;;;;;;;;5041798;28;20021;-68
2021/07/07 07:15:49;;;;;;;9.98;5.70;;;;;;;;;;5037144;28;20017;-68
2021/07/07 07:18:15;;;;;;;7.63;5.30;;;;;;;;;;5031314;28;20018;-68
2021/07/07 07:20:41;;;;;;;6.88;5.68;;;;;;;;;;5030442;28;20025;-68
2021/07/07 07:23:06;;;;;;;6.30;5.20;;;;;;;;;;5039100;28;20024;-69
2021/07/07 07:25:31;;;;;;;10.70;4.73;;;;;;;;;;5042849;28;20021;-70
2021/07/07 07:27:56;;;;;;;8.05;4.50;;;;;;;;;;5052024;28;20276;-69
2021/07/07 07:30:22;;;;;;;9.25;5.10;;;;;;;;;;5046549;28;20028;-70
2021/07/07 07:32:49;;;;;;;6.03;4.75;;;;;;;;;;5048991;28;20087;-69
2021/07/07 07:35:18;;;;;;;8.80;5.90;;;;;;;;;;5022629;28;20387;-69
2021/07/07 07:37:49;;;;;;;10.13;6.05;;;;;;;;;;5032631;28;20349;-69
2021/07/07 07:40:20;;;;;;;6.22;4.93;;;;;;;;;;5048649;28;20021;-69
2021/07/07 07:42:46;;;;;;;7.10;5.07;;;;;;;;;;5035907;28;20404;-70
2021/07/07 07:45:14;;;;;;;10.10;5.05;;;;;;;;;;5041666;28;20025;-70
2021/07/07 07:47:40;;;;;;;7.90;5.32;;;;;;;;;;5036321;28;20101;-70
2021/07/07 07:50:05;;;;;;;11.13;4.97;;;;;;;;;;5049244;28;20100;-69
2021/07/07 07:52:33;;;;;;;7.82;5.20;;;;;;;;;;5034511;28;20021;-70
2021/07/07 07:54:58;;;;;;;10.20;5.90;;;;;;;;;;5050518;28;20078;-69
2021/07/07 07:57:23;;;;;;;8.02;5.32;;;;;;;;;;5039423;28;20397;-69
2021/07/07 07:59:48;;;;;;;12.07;6.40;;;;;;;;;;5023145;28;20033;-70
2021/07/07 08:02:14;;;;;;;12.65;5.57;;;;;;;;;;5016127;28;20280;-69
2021/07/07 08:04:40;;;;;;;6.90;6.30;;;;;;;;;;5016588;28;20018;-69
2021/07/07 08:07:05;;;;;;;8.53;6.37;;;;;;;;;;4999791;28;20014;-70
2021/07/07 08:09:30;;;;;;;9.37;5.20;;;;;;;;;;5036199;28;20570;-69
2021/07/07 08:11:58;;;;;;;5.70;5.20;;;;;;;;;;5035525;28;20728;-69
2021/07/07 08:14:23;;;;;;;7.38;6.38;;;;;;;;;;5031439;28;20291;-70
2021/07/07 08:16:50;;;;;;;12.53;5.50;;;;;;;;;;5036147;28;20017;-70
2021/07/07 08:19:17;;;;;;;7.07;6.15;;;;;;;;;;5035830;28;20255;-70
2021/07/07 08:21:42;;;;;;;7.07;5.50;;;;;;;;;;5036468;28;20048;-69
2021/07/07 08:24:08;;;;;;;9.10;6.18;;;;;;;;;;5034696;28;20033;-69
2021/07/07 08:26:33;;;;;;;7.57;5.53;;;;;;;;;;5035951;28;20026;-68
2021/07/07 08:28:58;;;;;;;7.57;5.55;;;;;;;;;;5035372;28;20478;-69
2021/07/07 08:31:26;;;;;;;6.07;5.13;;;;;;;;;;5036014;28;20082;-69
2021/07/07 08:33:55;;;;;;;8.90;4.43;;;;;;;;;;5017903;28;20495;-69
2021/07/07 08:36:23;;;;;;;11.45;4.95;;;;;;;;;;5018476;28;20100;-69
2021/07/07 08:38:49;;;;;;;7.30;6.25;;;;;;;;;;5031519;28;20357;-68
2021/07/07 08:41:14;;;;;;;6.88;5.97;;;;;;;;;;5016295;28;20024;-68
2021/07/07 08:43:42;;;;;;;6.23;5.60;;;;;;;;;;5015979;28;20401;-69
2021/07/07 08:46:09;;;;;;;8.43;6.05;;;;;;;;;;5016326;28;20343;-68
2021/07/07 08:48:34;;;;;;;9.05;6.90;;;;;;;;;;5025916;28;20032;-69
2021/07/07 08:51:02;;;;;;;6.07;5.33;;;;;;;;;;5035426;28;20018;-69
2021/07/07 08:53:27;;;;;;;8.10;5.10;;;;;;;;;;5034014;28;20653;-70
2021/07/07 08:55:55;;;;;;;12.73;6.20;;;;;;;;;;5001504;28;20109;-69
2021/07/07 08:58:20;;;;;;;9.27;5.60;;;;;;;;;;5015426;28;20029;-69
2021/07/07 09:00:45;;;;;;;9.25;5.78;;;;;;;;;;5029038;28;20026;-70
2021/07/07 09:03:14;;;;;;;10.00;5.78;;;;;;;;;;5034999;28;20492;-69
2021/07/07 09:05:49;;;;;;;9.70;5.22;;;;;;;;;;5034667;28;20049;-69
2021/07/07 09:08:20;;;;;;;12.10;4.90;;;;;;;;;;5035207;28;20021;-69
2021/07/07 09:10:45;;;;;;;7.70;5.00;;;;;;;;;;5033884;28;20369;-69
2021/07/07 09:13:15;;;;;;;9.50;6.50;;;;;;;;;;5034973;28;20025;-68
2021/07/07 09:15:40;;;;;;;8.70;6.25;;;;;;;;;;5031723;28;20029;-69
2021/07/07 09:18:05;;;;;;;7.28;4.60;;;;;;;;;;5017687;28;20087;-68
2021/07/07 09:20:37;;;;;;;8.63;5.00;;;;;;;;;;5035001;28;20115;-69
2021/07/07 09:23:12;;;;;;;13.25;5.43;;;;;;;;;;5014618;28;20517;-68
2021/07/07 09:25:44;;;;;;;8.90;5.53;;;;;;;;;;5014944;28;20446;-69
2021/07/07 09:28:21;;;;;;;8.48;5.47;;;;;;;;;;5014778;28;20054;-69
2021/07/07 09:30:46;;;;;;;7.75;5.00;;;;;;;;;;5001502;28;20059;-68
2021/07/07 09:33:12;;;;;;;6.28;5.68;;;;;;;;;;5015579;28;20065;-68
2021/07/07 09:35:41;;;;;;;14.95;5.45;;;;;;;;;;5034662;28;20026;-68
2021/07/07 09:38:09;;;;;;;7.55;4.40;;;;;;;;;;5034281;28;20043;-69
2021/07/07 09:40:41;;;;;;;8.80;6.05;;;;;;;;;;5034512;28;20021;-68
2021/07/07 09:43:08;;;;;;;7.18;4.80;;;;;;;;;;5034441;28;20017;-70
2021/07/07 09:45:40;;;;;;;7.82;4.95;;;;;;;;;;5034694;28;20028;-68
2021/07/07 09:48:09;;;;;;;8.55;5.10;;;;;;;;;;5033315;28;20017;-69
2021/07/07 09:50:34;;;;;;;7.35;4.70;;;;;;;;;;5017760;28;20060;-68
2021/07/07 09:52:59;;;;;;;7.93;6.10;;;;;;;;;;5034217;28;20052;-68
2021/07/07 09:55:26;;;;;;;7.27;5.97;;;;;;;;;;5017327;28;20256;-70
2021/07/07 09:57:51;;;;;;;7.90;4.82;;;;;;;;;;5034078;28;20280;-69
2021/07/07 10:00:19;;;;;;;9.40;5.40;;;;;;;;;;5034305;28;20021;-69
2021/07/07 10:02:46;;;;;;;8.05;4.60;;;;;;;;;;5033742;28;20033;-68
2021/07/07 10:05:13;;;;;;;9.90;5.07;;;;;;;;;;5034221;28;20022;-69
2021/07/07 10:07:38;;;;;;;6.95;4.43;;;;;;;;;;5033708;28;20179;-73
2021/07/07 10:10:04;;;;;;;6.35;4.72;;;;;;;;;;5034264;28;20101;-71
2021/07/07 10:12:30;;;;;;;11.18;5.75;;;;;;;;;;5030216;28;20021;-70
2021/07/07 10:14:56;;;;;;;9.73;5.85;;;;;;;;;;5014327;28;20025;-69
2021/07/07 10:17:24;;;;;;;8.73;5.90;;;;;;;;;;5014517;28;20049;-69
2021/07/07 10:19:49;;;;;;;7.15;5.10;;;;;;;;;;5031181;28;20037;-69
2021/07/07 10:22:15;;;;;;;8.95;4.43;;;;;;;;;;5024437;28;20034;-69
2021/07/07 10:24:41;;;;;;;9.52;4.60;;;;;;;;;;5034176;28;20337;-69
2021/07/07 10:27:07;;;;;;;7.43;5.25;;;;;;;;;;5033334;28;20041;-68
2021/07/07 10:29:36;;;;;;;10.63;5.32;;;;;;;;;;5033883;28;20037;-69
2021/07/07 10:32:05;;;;;;;6.32;4.85;;;;;;;;;;5026128;28;20400;-75
2021/07/07 10:34:31;;;;;;;6.55;5.75;;;;;;;;;;5013216;28;20486;-68
2021/07/07 10:36:57;;;;;;;6.72;6.10;;;;;;;;;;5013028;28;20033;-68
2021/07/07 10:39:22;;;;;;;14.93;4.40;;;;;;;;;;5030958;28;20456;-68
2021/07/07 10:41:51;;;;;;;5.28;4.78;;;;;;;;;;5032326;28;20014;-67
2021/07/07 10:44:22;;;;;;;6.28;5.25;;;;;;;;;;5033293;28;20087;-74
2021/07/07 10:47:01;;;;;;;8.80;4.22;;;;;;;;;;5015259;28;20014;-71
2021/07/07 10:49:29;;;;;;;8.20;5.07;;;;;;;;;;5032935;28;20461;-73
2021/07/07 10:51:57;;;;;;;5.32;4.88;;;;;;;;;;5033359;28;20068;-72
2021/07/07 10:54:24;;;;;;;6.60;4.72;;;;;;;;;;5032998;28;20335;-73
2021/07/07 10:56:50;;;;;;;6.72;4.13;;;;;;;;;;5033311;28;20022;-72
2021/07/07 10:59:41;;;;;;;4.82;3.92;;;;;;;;;;5031949;28;20028;-72
2021/07/07 11:02:08;;;;;;;5.80;4.95;;;;;;;;;;5028087;28;20030;-79
2021/07/07 11:04:41;;;;;;;5.35;4.85;;;;;;;;;;5021618;28;20467;-69
2021/07/07 11:07:21;;;;;;;6.03;4.88;;;;;;;;;;5013666;28;20152;-69
2021/07/07 11:09:52;;;;;;;6.85;5.18;;;;;;;;;;5013799;28;20042;-70
2021/07/07 11:12:17;;;;;;;5.00;4.00;;;;;;;;;;5008212;28;20021;-69
2021/07/07 11:14:56;;;;;;;6.30;5.80;;;;;;;;;;5031733;28;20064;-68
2021/07/07 11:17:22;;;;;;;6.55;4.57;;;;;;;;;;5032994;28;20264;-69
2021/07/07 11:19:49;;;;;;;6.25;4.53;;;;;;;;;;5015101;28;20029;-68
2021/07/07 11:22:16;;;;;;;7.40;3.55;;;;;;;;;;5031732;28;20044;-69
2021/07/07 11:24:47;;;;;;;4.20;3.90;;;;;;;;;;5033054;28;20037;-68
2021/07/07 11:27:15;;;;;;;3.60;3.28;;;;;;;;;;5031303;28;20033;-68
2021/07/07 11:29:40;;;;;;;5.80;5.10;;;;;;;;;;5033160;28;20086;-68
2021/07/07 11:32:24;;;;;;;8.25;4.32;;;;;;;;;;5032843;28;20112;-68
2021/07/07 11:34:53;;;;;;;7.60;3.40;;;;;;;;;;5025502;28;20357;-69
2021/07/07 11:37:25;;;;;;;4.20;3.40;;;;;;;;;;5026067;28;20022;-68
2021/07/07 11:40:04;;;;;;;9.77;4.28;;;;;;;;;;5030141;28;20022;-69
2021/07/07 11:42:30;;;;;;;7.82;3.88;;;;;;;;;;5033226;28;20052;-75
2021/07/07 11:44:55;;;;;;;6.70;4.50;;;;;;;;;;5031296;28;20123;-74
2021/07/07 11:47:28;;;;;;;4.50;4.10;;;;;;;;;;5032463;28;20068;-75
2021/07/07 11:50:07;;;;;;;4.13;3.72;;;;;;;;;;5034411;28;20053;-75
2021/07/07 11:52:32;;;;;;;6.30;5.00;;;;;;;;;;5034975;28;20026;-75
2021/07/07 11:54:59;;;;;;;6.57;4.50;;;;;;;;;;5035211;28;20048;-75
2021/07/07 11:57:25;;;;;;;5.70;5.13;;;;;;;;;;5035792;28;20303;-76
2021/07/07 11:59:51;;;;;;;5.17;3.93;;;;;;;;;;5013074;28;20648;-76
2021/07/07 12:02:20;;;;;;;5.55;4.03;;;;;;;;;;5032011;28;20279;-76
2021/07/07 12:04:46;;;;;;;2.22;0.88;;;;;;;;;;5030489;28;20034;-75
2021/07/07 12:07:12;;;;;;;2.72;0.90;;;;;;;;;;5034978;28;20017;-75
2021/07/07 12:09:37;;;;;;;2.08;0.90;;;;;;;;;;5027390;28;20354;-76
2021/07/07 12:12:05;;;;;;;2.23;0.90;;;;;;;;;;5033696;28;20037;-76
2021/07/07 12:14:31;;;;;;;5.15;1.00;;;;;;;;;;5033026;28;20025;-76
2021/07/07 12:16:57;;;;;;;3.75;1.00;;;;;;;;;;5015266;28;20424;-76
2021/07/07 12:19:23;;;;;;;3.20;1.00;;;;;;;;;;5018262;28;20032;-76
2021/07/07 12:21:54;;;;;;;4.70;1.05;;;;;;;;;;5034454;28;20018;-76
2021/07/07 12:24:19;;;;;;;3.83;1.00;;;;;;;;;;5032907;28;20021;-76
2021/07/07 12:26:46;;;;;;;2.20;0.90;;;;;;;;;;5033962;28;20096;-76
2021/07/07 12:29:31;;;;;;;2.45;0.95;;;;;;;;;;5034323;28;20057;-76
2021/07/07 12:32:06;;;;;;;2.78;0.90;;;;;;;;;;5030276;28;20049;-77
2021/07/07 12:34:32;;;;;;;3.55;1.00;;;;;;;;;;5031763;28;20091;-76
2021/07/07 12:36:59;;;;;;;2.53;0.93;;;;;;;;;;5031704;28;20112;-77
2021/07/07 12:39:29;;;;;;;2.55;1.00;;;;;;;;;;5017141;28;20049;-76
2021/07/07 12:42:04;;;;;;;5.03;1.02;;;;;;;;;;5032248;28;20025;-76
2021/07/07 12:44:39;;;;;;;2.20;0.90;;;;;;;;;;5033365;28;20091;-76
2021/07/07 12:47:16;;;;;;;4.82;1.13;;;;;;;;;;5029509;28;20053;-76
2021/07/07 12:49:44;;;;;;;5.15;1.10;;;;;;;;;;5032146;28;20005;-77
2021/07/07 12:52:13;;;;;;;3.13;1.02;;;;;;;;;;5030032;28;20454;-77
2021/07/07 12:54:41;;;;;;;4.07;1.00;;;;;;;;;;5030461;28;20055;-78
2021/07/07 12:57:06;;;;;;;3.05;1.08;;;;;;;;;;5029936;28;20357;-77
2021/07/07 12:59:32;;;;;;;5.03;1.10;;;;;;;;;;5028113;28;20109;-76
2021/07/07 13:01:58;;;;;;;6.83;1.00;;;;;;;;;;5013591;28;20014;-76
2021/07/07 13:04:23;;;;;;;2.10;0.93;;;;;;;;;;5027022;28;20447;-74
2021/07/07 13:07:00;;;;;;;3.93;0.93;;;;;;;;;;5031381;28;20076;-75
2021/07/07 13:09:30;;;;;;;3.05;0.90;;;;;;;;;;5030422;28;20071;-74
2021/07/07 13:12:13;;;;;;;2.75;1.15;;;;;;;;;;5031099;28;20026;-74
2021/07/07 13:14:46;;;;;;;2.30;0.80;;;;;;;;;;5032011;28;20425;-75
2021/07/07 13:17:21;;;;;;;3.05;0.95;;;;;;;;;;5034909;28;20108;-75
2021/07/07 13:19:56;;;;;;;2.65;1.00;;;;;;;;;;5033923;28;20037;-72
2021/07/07 13:22:21;;;;;;;2.40;0.80;;;;;;;;;;5033607;28;20112;-75
2021/07/07 13:24:47;;;;;;;2.93;1.13;;;;;;;;;;5032955;28;20113;-74
2021/07/07 13:27:13;;;;;;;3.83;1.20;;;;;;;;;;5032784;28;20565;-76
2021/07/07 13:29:42;;;;;;;2.40;1.10;;;;;;;;;;5032881;28;20141;-76
2021/07/07 13:32:13;;;;;;;9.65;1.50;;;;;;;;;;5028977;28;20013;-76
2021/07/07 13:34:49;;;;;;;4.57;1.40;;;;;;;;;;5015507;28;20370;-76
2021/07/07 13:37:18;;;;;;;8.98;1.40;;;;;;;;;;5029220;28;20037;-76
2021/07/07 13:39:48;;;;;;;2.85;1.02;;;;;;;;;;5030974;28;20028;-75
2021/07/07 13:42:14;;;;;;;2.80;0.98;;;;;;;;;;5027712;28;20013;-76
2021/07/07 13:44:42;;;;;;;3.10;1.15;;;;;;;;;;5033968;28;20039;-76
2021/07/07 13:47:07;;;;;;;4.32;1.58;;;;;;;;;;5009357;28;20323;-76
2021/07/07 13:49:35;;;;;;;3.67;1.05;;;;;;;;;;5032829;28;20029;-76
2021/07/07 13:52:00;;;;;;;5.78;1.13;;;;;;;;;;5034016;28;20087;-74
2021/07/07 13:54:26;;;;;;;2.70;1.10;;;;;;;;;;5034319;28;20097;-74
2021/07/07 13:56:51;;;;;;;3.27;1.10;;;;;;;;;;5034398;28;20069;-74
2021/07/07 13:59:16;;;;;;;3.10;1.00;;;;;;;;;;5034429;28;20260;-76
2021/07/07 14:01:41;;;;;;;2.97;1.02;;;;;;;;;;5032358;28;20669;-76
2021/07/07 14:04:07;;;;;;;4.40;1.10;;;;;;;;;;5033867;28;20021;-76
2021/07/07 14:06:35;;;;;;;4.30;0.97;;;;;;;;;;5034183;28;20116;-76
2021/07/07 14:09:01;;;;;;;3.78;1.00;;;;;;;;;;5015435;28;20268;-75
2021/07/07 14:11:27;;;;;;;4.72;1.13;;;;;;;;;;5032443;28;20014;-76
2021/07/07 14:13:56;;;;;;;2.53;1.05;;;;;;;;;;5027390;28;20084;-76
2021/07/07 14:16:23;;;;;;;3.10;1.20;;;;;;;;;;5029692;28;20405;-75
2021/07/07 14:18:49;;;;;;;8.07;1.20;;;;;;;;;;5031173;28;20033;-76
2021/07/07 14:21:14;;;;;;;3.77;1.30;;;;;;;;;;5031315;28;20120;-76
2021/07/07 14:23:39;;;;;;;3.70;1.25;;;;;;;;;;5033315;28;20402;-75
2021/07/07 14:26:07;;;;;;;6.20;1.30;;;;;;;;;;5028216;28;20083;-75
2021/07/07 14:28:32;;;;;;;4.18;1.30;;;;;;;;;;5016974;28;20048;-75
2021/07/07 14:30:57;;;;;;;4.40;1.30;;;;;;;;;;5015281;28;20030;-75
2021/07/07 14:33:22;;;;;;;2.47;1.17;;;;;;;;;;5033425;28;20300;-75
2021/07/07 14:35:50;;;;;;;1.98;0.98;;;;;;;;;;5033384;28;20735;-76
2021/07/07 14:38:15;;;;;;;3.03;1.05;;;;;;;;;;5033566;28;20398;-75
2021/07/07 14:40:43;;;;;;;2.35;1.00;;;;;;;;;;5032478;28;20092;-76
2021/07/07 14:43:08;;;;;;;2.75;1.10;;;;;;;;;;5019550;28;20521;-76
2021/07/07 14:45:36;;;;;;;2.30;1.00;;;;;;;;;;5007788;28;20022;-76
2021/07/07 14:48:01;;;;;;;4.90;0.95;;;;;;;;;;5032382;28;20715;-76
2021/07/07 14:50:27;;;;;;;3.63;1.10;;;;;;;;;;5029792;28;20025;-75
2021/07/07 14:52:52;;;;;;;4.03;1.00;;;;;;;;;;5028590;28;20018;-76
2021/07/07 14:55:20;;;;;;;3.13;1.00;;;;;;;;;;5032535;28;20032;-76
2021/07/07 14:57:46;;;;;;;3.72;1.10;;;;;;;;;;5015225;28;20017;-76
2021/07/07 15:00:12;;;;;;;3.40;1.00;;;;;;;;;;5030131;28;20040;-75
2021/07/07 15:02:37;;;;;;;2.50;1.02;;;;;;;;;;5031339;28;20021;-76
2021/07/07 15:05:04;;;;;;;5.07;0.90;;;;;;;;;;5028873;28;20019;-76
2021/07/07 15:07:29;;;;;;;3.88;0.93;;;;;;;;;;5033096;28;20036;-76
2021/07/07 15:09:54;;;;;;;4.10;1.20;;;;;;;;;;5033066;28;20013;-76
2021/07/07 15:12:23;;;;;;;7.17;1.30;;;;;;;;;;5032858;28;20014;-76
2021/07/07 15:14:48;;;;;;;4.05;1.23;;;;;;;;;;5031065;28;20738;-76
2021/07/07 15:17:13;;;;;;;3.00;1.17;;;;;;;;;;5027624;28;20025;-76
2021/07/07 15:19:38;;;;;;;3.92;1.00;;;;;;;;;;5029453;28;20553;-76
2021/07/07 15:22:06;;;;;;;8.10;1.33;;;;;;;;;;5031817;28;20025;-76
2021/07/07 15:24:32;;;;;;;2.63;1.10;;;;;;;;;;5034253;28;20095;-76
2021/07/07 15:26:57;;;;;;;3.65;1.10;;;;;;;;;;5036564;28;20037;-76
2021/07/07 15:29:23;;;;;;;1.77;0.88;;;;;;;;;;5039832;28;20022;-76
2021/07/07 15:31:48;;;;;;;3.92;1.17;;;;;;;;;;5033614;28;20025;-76
2021/07/07 15:34:14;;;;;;;5.00;0.85;;;;;;;;;;5030948;28;20117;-76
2021/07/07 15:36:41;;;;;;;2.92;1.00;;;;;;;;;;5017285;28;20038;-76
2021/07/07 15:39:07;;;;;;;2.55;1.20;;;;;;;;;;5028019;28;20120;-76
2021/07/07 15:41:32;;;;;;;3.05;1.17;;;;;;;;;;5030833;28;20109;-76
2021/07/07 15:43:57;;;;;;;2.40;0.90;;;;;;;;;;5035702;28;20017;-76
2021/07/07 15:46:23;;;;;;;2.38;0.90;;;;;;;;;;5015513;28;20018;-76
2021/07/07 15:48:48;;;;;;;4.63;2.47;;;;;;;;;;5025331;28;20096;-76
2021/07/07 15:51:15;;;;;;;2.57;0.90;;;;;;;;;;5013727;28;20100;-76
2021/07/07 15:53:41;;;;;;;4.05;1.02;;;;;;;;;;5034942;28;20287;-76
2021/07/07 15:56:06;;;;;;;7.32;3.22;;;;;;;;;;5017609;28;20034;-76
2021/07/07 15:58:32;;;;;;;2.30;0.90;;;;;;;;;;5022878;28;20029;-76
2021/07/07 16:00:57;;;;;;;2.38;0.70;;;;;;;;;;5035343;28;20021;-76
2021/07/07 16:03:23;;;;;;;4.40;1.17;;;;;;;;;;5035920;28;20454;-77
2021/07/07 16:05:50;;;;;;;1.77;0.90;;;;;;;;;;5018629;28;20017;-76
2021/07/07 16:08:16;;;;;;;3.05;0.98;;;;;;;;;;5034254;28;20280;-76
2021/07/07 16:10:46;;;;;;;5.33;1.47;;;;;;;;;;5035010;28;20084;-76
2021/07/07 16:13:11;;;;;;;3.22;1.10;;;;;;;;;;5018043;28;20272;-76
2021/07/07 16:15:36;;;;;;;2.00;1.00;;;;;;;;;;5035511;28;20026;-76
2021/07/07 16:18:02;;;;;;;6.15;3.90;;;;;;;;;;5035144;28;20104;-76
2021/07/07 16:20:32;;;;;;;2.90;1.23;;;;;;;;;;5017337;28;20029;-76
2021/07/07 16:23:00;;;;;;;1.92;1.40;;;;;;;;;;5018656;28;20057;-76
2021/07/07 16:25:28;;;;;;;4.97;1.80;;;;;;;;;;5035096;28;20014;-76
2021/07/07 16:27:55;;;;;;;2.60;0.90;;;;;;;;;;5035418;28;20100;-76
2021/07/07 16:30:21;;;;;;;6.57;1.80;;;;;;;;;;5028247;28;20102;-76
2021/07/07 16:32:46;;;;;;;3.70;1.58;;;;;;;;;;5035823;28;20108;-76
2021/07/07 16:35:15;;;;;;;3.20;1.35;;;;;;;;;;5033929;28;20414;-76
2021/07/07 16:37:41;;;;;;;4.18;1.40;;;;;;;;;;5035386;28;20549;-76
2021/07/07 16:40:07;;;;;;;2.45;1.10;;;;;;;;;;5034682;28;20090;-76
2021/07/07 16:42:37;;;;;;;6.03;1.80;;;;;;;;;;5034611;28;20056;-76
2021/07/07 16:45:04;;;;;;;4.25;1.45;;;;;;;;;;5017963;28;20014;-76
2021/07/07 16:47:32;;;;;;;6.22;1.48;;;;;;;;;;5034377;28;20032;-76
2021/07/07 16:49:57;;;;;;;4.05;1.50;;;;;;;;;;5035434;28;20025;-76
2021/07/07 16:52:22;;;;;;;1.97;0.93;;;;;;;;;;5035250;28;20009;-76
2021/07/07 16:54:50;;;;;;;4.43;1.10;;;;;;;;;;5034812;28;20275;-76
2021/07/07 16:57:16;;;;;;;2.25;0.90;;;;;;;;;;5035315;28;20021;-77
2021/07/07 16:59:43;;;;;;;4.82;1.10;;;;;;;;;;5032644;28;20028;-76
2021/07/07 17:02:08;;;;;;;2.10;1.00;;;;;;;;;;5034469;28;20017;-76
2021/07/07 17:04:34;;;;;;;4.22;1.17;;;;;;;;;;5034892;28;20056;-76
2021/07/07 17:07:01;;;;;;;3.03;1.05;;;;;;;;;;5035965;28;20111;-75
2021/07/07 17:09:26;;;;;;;2.58;1.30;;;;;;;;;;5016967;28;20033;-76
2021/07/07 17:11:52;;;;;;;2.67;1.00;;;;;;;;;;5032505;28;20044;-76
2021/07/07 17:14:17;;;;;;;3.70;1.23;;;;;;;;;;5034261;28;20410;-79
2021/07/07 17:16:45;;;;;;;4.53;1.10;;;;;;;;;;5034234;28;20036;-76
2021/07/07 17:19:12;;;;;;;3.92;0.95;;;;;;;;;;5032721;28;20040;-77
2021/07/07 17:21:38;;;;;;;2.00;0.90;;;;;;;;;;5034573;28;20009;-76
2021/07/07 17:24:03;;;;;;;1.48;0.98;;;;;;;;;;5032782;28;20032;-76
2021/07/07 17:26:30;;;;;;;100.40;90.35;;;;;;;;;;5032844;28;20025;-76
2021/07/07 17:28:59;;;;;;;7.13;5.15;;;;;;;;;;5030554;28;20120;-73
2021/07/07 17:31:25;;;;;;;2.67;1.15;;;;;;;;;;5016230;28;20033;-73
2021/07/07 17:33:50;;;;;;;4.03;0.88;;;;;;;;;;5014900;28;20041;-74
2021/07/07 17:36:18;;;;;;;4.45;0.93;;;;;;;;;;5037547;28;20029;-71
2021/07/07 17:38:43;;;;;;;2.10;0.88;;;;;;;;;;5032625;28;20030;-74
2021/07/07 17:41:09;;;;;;;4.38;0.90;;;;;;;;;;5026742;28;20087;-72
2021/07/07 17:43:34;;;;;;;2.97;0.80;;;;;;;;;;5030412;28;20035;-73
2021/07/07 17:46:00;;;;;;;2.70;0.85;;;;;;;;;;5031068;28;20029;-73
2021/07/07 17:48:26;;;;;;;2.70;1.10;;;;;;;;;;5014772;28;20029;-76
2021/07/07 17:50:52;;;;;;;4.28;1.25;;;;;;;;;;5034142;28;20308;-76
2021/07/07 17:53:18;;;;;;;2.28;1.00;;;;;;;;;;5032140;28;20416;-76
2021/07/07 17:55:44;;;;;;;1.02;0.65;;;;;;;;;;5032725;28;20100;-76
2021/07/07 17:58:11;;;;;;;3.45;2.00;;;;;;;;;;5033111;28;20101;-76
2021/07/07 18:00:36;;;;;;;3.85;1.50;;;;;;;;;;5033532;28;20029;-76
2021/07/07 18:03:03;;;;;;;3.47;1.17;;;;;;;;;;5033846;28;20025;-76
2021/07/07 18:05:28;;;;;;;2.35;1.05;;;;;;;;;;5034066;28;20335;-76
2021/07/07 18:07:55;;;;;;;2.83;1.10;;;;;;;;;;5031229;28;20100;-76
2021/07/07 18:10:23;;;;;;;4.78;1.20;;;;;;;;;;5022915;28;20268;-75
2021/07/07 18:12:48;;;;;;;9.07;1.70;;;;;;;;;;5033785;28;20323;-75
2021/07/07 18:15:14;;;;;;;3.50;1.47;;;;;;;;;;5025534;28;20152;-75
2021/07/07 18:17:44;;;;;;;5.65;1.83;;;;;;;;;;5032589;28;20292;-75
2021/07/07 18:20:11;;;;;;;11.80;7.43;;;;;;;;;;5017853;28;20119;-75
2021/07/07 18:22:37;;;;;;;3.85;1.35;;;;;;;;;;5012025;28;20025;-73
2021/07/07 18:25:03;;;;;;;4.70;1.55;;;;;;;;;;5015254;28;20028;-73
2021/07/07 18:27:28;;;;;;;5.63;1.80;;;;;;;;;;5027516;28;20041;-74
2021/07/07 18:29:54;;;;;;;2.53;1.48;;;;;;;;;;5030474;28;20005;-74
2021/07/07 18:32:19;;;;;;;6.90;1.60;;;;;;;;;;5033041;28;20025;-74
2021/07/07 18:34:44;;;;;;;4.97;1.70;;;;;;;;;;5033418;28;20029;-74
2021/07/07 18:37:12;;;;;;;9.23;2.37;;;;;;;;;;5033185;28;20252;-74
2021/07/07 18:39:37;;;;;;;6.22;2.08;;;;;;;;;;5013446;28;20296;-73
2021/07/07 18:42:02;;;;;;;9.98;2.58;;;;;;;;;;5030375;28;20017;-74
2021/07/07 18:44:27;;;;;;;8.93;3.03;;;;;;;;;;5033561;28;20388;-75
2021/07/07 18:46:55;;;;;;;4.60;1.52;;;;;;;;;;5033473;28;20028;-75
2021/07/07 18:49:23;;;;;;;5.10;1.70;;;;;;;;;;5028058;28;20025;-75
2021/07/07 18:51:48;;;;;;;10.80;1.80;;;;;;;;;;5030179;28;20021;-74
2021/07/07 18:54:13;;;;;;;4.38;1.67;;;;;;;;;;5029582;28;20438;-74
2021/07/07 18:56:39;;;;;;;6.20;3.60;;;;;;;;;;5030415;28;20037;-75